sensor_id;sensor_type;location;lat;lon;timestamp;pressure;altitude;pressure_sealevel;temperature;humidity
36600;BME280;35385;55.668;37.508;2023-05-21T00:00:03;99984.13;;;11.06;100.00
36600;BME280;35385;55.668;37.508;2023-05-21T00:01:08;99956.44;;;10.95;100.00
36600;BME280;35385;55.668;37.508;2023-05-21T00:02:09;99958.72;;;11.00;100.00
36600;BME280;35385;55.668;37.508;2023-05-21T00:03:11;99971.94;;;11.13;100.00
36600;BME280;35385;55.668;37.508;2023-05-21T00:04:13;99969.03;;;11.16;100.00
36600;BME280;35385;55.668;37.508;2023-05-21T00:05:14;99976.59;;;11.11;100.00
36600;BME280;35385;55.668;37.508;2023-05-21T00:06:17;99970.50;;;11.09;100.00
36600;BME280;35385;55.668;37.508;2023-05-21T00:07:20;99969.91;;;11.05;100.00
36600;BME280;35385;55.668;37.508;2023-05-21T00:08:21;99902.97;;;10.62;100.00
36600;BME280;35385;55.668;37.508;2023-05-21T00:09:22;99916.81;;;10.78;100.00
36600;BME280;35385;55.668;37.508;2023-05-21T00:10:22;99961.97;;;11.15;100.00
36600;BME280;35385;55.668;37.508;2023-05-21T00:11:23;99969.03;;;11.16;100.00
36600;BME280;35385;55.668;37.508;2023-05-21T00:12:23;99965.38;;;11.17;100.00
36600;BME280;35385;55.668;37.508;2023-05-21T00:13:24;99936.00;;;10.94;100.00
36600;BME280;35385;55.668;37.508;2023-05-21T00:14:25;99894.94;;;10.73;100.00
36600;BME280;35385;55.668;37.508;2023-05-21T00:15:25;99961.38;;;11.11;100.00
36600;BME280;35385;55.668;37.508;2023-05-21T00:16:26;99946.81;;;10.93;100.00
36600;BME280;35385;55.668;37.508;2023-05-21T00:17:27;99952.03;;;11.06;100.00
36600;BME280;35385;55.668;37.508;2023-05-21T00:18:28;99962.97;;;11.14;100.00
36600;BME280;35385;55.668;37.508;2023-05-21T00:19:31;99948.16;;;11.10;100.00
36600;BME280;35385;55.668;37.508;2023-05-21T00:20:34;99958.09;;;11.19;100.00
36600;BME280;35385;55.668;37.508;2023-05-21T00:21:34;99964.91;;;11.23;100.00
36600;BME280;35385;55.668;37.508;2023-05-21T00:22:35;99951.66;;;11.21;100.00
36600;BME280;35385;55.668;37.508;2023-05-21T00:23:35;99947.88;;;11.13;100.00
36600;BME280;35385;55.668;37.508;2023-05-21T00:24:37;99959.69;;;11.21;100.00
36600;BME280;35385;55.668;37.508;2023-05-21T00:25:37;99964.63;;;11.26;100.00
36600;BME280;35385;55.668;37.508;2023-05-21T00:26:38;99939.63;;;11.16;100.00
36600;BME280;35385;55.668;37.508;2023-05-21T00:27:38;99956.16;;;11.21;100.00
36600;BME280;35385;55.668;37.508;2023-05-21T00:28:39;99836.09;;;10.52;100.00
36600;BME280;35385;55.668;37.508;2023-05-21T00:29:40;99937.19;;;11.13;100.00
36600;BME280;35385;55.668;37.508;2023-05-21T00:30:40;99953.09;;;11.25;100.00
36600;BME280;35385;55.668;37.508;2023-05-21T00:31:42;99935.00;;;11.18;100.00
36600;BME280;35385;55.668;37.508;2023-05-21T00:32:42;99955.28;;;11.31;100.00
36600;BME280;35385;55.668;37.508;2023-05-21T00:33:43;99952.97;;;11.38;100.00
36600;BME280;35385;55.668;37.508;2023-05-21T00:34:44;99886.94;;;10.95;100.00
36600;BME280;35385;55.668;37.508;2023-05-21T00:35:44;99948.84;;;11.34;100.00
36600;BME280;35385;55.668;37.508;2023-05-21T00:36:45;99944.09;;;11.26;100.00
36600;BME280;35385;55.668;37.508;2023-05-21T00:37:46;99951.16;;;11.27;100.00
36600;BME280;35385;55.668;37.508;2023-05-21T00:38:46;99924.78;;;11.12;100.00
36600;BME280;35385;55.668;37.508;2023-05-21T00:39:47;99945.31;;;11.33;100.00
36600;BME280;35385;55.668;37.508;2023-05-21T00:40:49;99936.06;;;11.26;100.00
36600;BME280;35385;55.668;37.508;2023-05-21T00:41:49;99935.84;;;11.18;100.00
36600;BME280;35385;55.668;37.508;2023-05-21T00:42:50;99931.25;;;11.20;100.00
36600;BME280;35385;55.668;37.508;2023-05-21T00:43:50;99928.56;;;11.20;100.00
36600;BME280;35385;55.668;37.508;2023-05-21T00:44:52;99906.84;;;11.03;100.00
36600;BME280;35385;55.668;37.508;2023-05-21T00:45:53;99933.69;;;11.23;100.00
36600;BME280;35385;55.668;37.508;2023-05-21T00:46:55;99938.75;;;11.38;100.00
36600;BME280;35385;55.668;37.508;2023-05-21T00:47:56;99927.72;;;11.20;100.00
36600;BME280;35385;55.668;37.508;2023-05-21T00:48:57;99943.13;;;11.39;100.00
36600;BME280;35385;55.668;37.508;2023-05-21T00:49:58;99946.41;;;11.31;100.00
36600;BME280;35385;55.668;37.508;2023-05-21T00:50:59;99935.34;;;11.36;100.00
36600;BME280;35385;55.668;37.508;2023-05-21T00:52:00;99943.84;;;11.29;100.00
36600;BME280;35385;55.668;37.508;2023-05-21T00:53:00;99944.09;;;11.26;100.00
36600;BME280;35385;55.668;37.508;2023-05-21T00:54:01;99936.81;;;11.28;100.00
36600;BME280;35385;55.668;37.508;2023-05-21T00:55:02;99942.06;;;11.19;100.00
36600;BME280;35385;55.668;37.508;2023-05-21T00:56:03;99942.31;;;11.16;100.00
36600;BME280;35385;55.668;37.508;2023-05-21T00:57:04;99926.41;;;11.03;100.00
36600;BME280;35385;55.668;37.508;2023-05-21T00:58:07;99944.50;;;11.11;100.00
36600;BME280;35385;55.668;37.508;2023-05-21T00:59:08;99869.44;;;10.69;100.00
36600;BME280;35385;55.668;37.508;2023-05-21T01:00:09;99951.53;;;11.12;100.00
36600;BME280;35385;55.668;37.508;2023-05-21T01:01:11;99954.69;;;11.17;100.00
36600;BME280;35385;55.668;37.508;2023-05-21T01:02:13;99940.84;;;11.12;100.00
36600;BME280;35385;55.668;37.508;2023-05-21T01:03:17;99939.25;;;11.20;100.00
36600;BME280;35385;55.668;37.508;2023-05-21T01:04:18;99906.84;;;10.91;100.00
36600;BME280;35385;55.668;37.508;2023-05-21T01:05:19;99942.53;;;11.13;100.00
36600;BME280;35385;55.668;37.508;2023-05-21T01:06:21;99879.41;;;10.78;100.00
36600;BME280;35385;55.668;37.508;2023-05-21T01:07:22;99949.97;;;11.20;100.00
36600;BME280;35385;55.668;37.508;2023-05-21T01:08:22;99950.56;;;11.24;100.00
36600;BME280;35385;55.668;37.508;2023-05-21T01:09:26;99949.59;;;11.25;100.00
36600;BME280;35385;55.668;37.508;2023-05-21T01:10:27;99937.19;;;11.24;100.00
36600;BME280;35385;55.668;37.508;2023-05-21T01:11:36;99938.25;;;11.32;100.00
36600;BME280;35385;55.668;37.508;2023-05-21T01:12:41;99869.19;;;10.94;100.00
36600;BME280;35385;55.668;37.508;2023-05-21T01:13:43;99897.13;;;11.02;100.00
36600;BME280;35385;55.668;37.508;2023-05-21T01:14:46;99949.53;;;11.47;100.00
36600;BME280;35385;55.668;37.508;2023-05-21T01:15:48;99945.66;;;11.51;100.00
36600;BME280;35385;55.668;37.508;2023-05-21T01:16:50;99943.81;;;11.52;100.00
36600;BME280;35385;55.668;37.508;2023-05-21T01:17:52;99940.06;;;11.43;100.00
36600;BME280;35385;55.668;37.508;2023-05-21T01:18:53;99948.44;;;11.50;100.00
36600;BME280;35385;55.668;37.508;2023-05-21T01:19:55;99949.78;;;11.44;100.00
36600;BME280;35385;55.668;37.508;2023-05-21T01:20:56;99941.28;;;11.50;100.00
36600;BME280;35385;55.668;37.508;2023-05-21T01:22:04;99954.25;;;11.55;100.00
36600;BME280;35385;55.668;37.508;2023-05-21T01:23:05;99946.09;;;11.56;100.00
36600;BME280;35385;55.668;37.508;2023-05-21T01:24:06;99934.94;;;11.51;100.00
36600;BME280;35385;55.668;37.508;2023-05-21T01:25:08;99939.31;;;11.52;100.00
36600;BME280;35385;55.668;37.508;2023-05-21T01:26:08;99895.84;;;11.28;100.00
36600;BME280;35385;55.668;37.508;2023-05-21T01:27:12;99943.81;;;11.52;100.00
36600;BME280;35385;55.668;37.508;2023-05-21T01:28:13;99941.03;;;11.53;100.00
36600;BME280;35385;55.668;37.508;2023-05-21T01:29:13;99931.28;;;11.52;100.00
36600;BME280;35385;55.668;37.508;2023-05-21T01:30:18;99952.66;;;11.63;100.00
36600;BME280;35385;55.668;37.508;2023-05-21T01:31:26;99937.09;;;11.57;100.00
36600;BME280;35385;55.668;37.508;2023-05-21T01:32:35;99954.84;;;11.58;100.00
36600;BME280;35385;55.668;37.508;2023-05-21T01:33:43;99944.63;;;11.63;100.00
36600;BME280;35385;55.668;37.508;2023-05-21T01:35:01;99954.81;;;11.69;100.00
36600;BME280;35385;55.668;37.508;2023-05-21T01:36:06;99955.81;;;11.68;100.00
36600;BME280;35385;55.668;37.508;2023-05-21T01:37:26;99950.19;;;11.72;100.00
36600;BME280;35385;55.668;37.508;2023-05-21T01:38:42;99952.13;;;11.69;100.00
36600;BME280;35385;55.668;37.508;2023-05-21T01:40:22;99951.28;;;11.69;100.00
36600;BME280;35385;55.668;37.508;2023-05-21T01:41:26;99952.78;;;11.62;100.00
36600;BME280;35385;55.668;37.508;2023-05-21T01:42:29;99897.91;;;11.36;100.00
36600;BME280;35385;55.668;37.508;2023-05-21T01:43:33;99948.38;;;11.72;100.00
36600;BME280;35385;55.668;37.508;2023-05-21T01:44:36;99951.88;;;11.73;100.00
36600;BME280;35385;55.668;37.508;2023-05-21T01:45:39;99947.78;;;11.68;100.00
36600;BME280;35385;55.668;37.508;2023-05-21T01:46:41;99935.50;;;11.66;100.00
36600;BME280;35385;55.668;37.508;2023-05-21T01:47:44;99936.81;;;11.72;100.00
36600;BME280;35385;55.668;37.508;2023-05-21T01:48:48;99944.59;;;11.75;100.00
36600;BME280;35385;55.668;37.508;2023-05-21T01:49:52;99947.16;;;11.76;100.00
36600;BME280;35385;55.668;37.508;2023-05-21T01:50:54;99880.19;;;11.23;100.00
36600;BME280;35385;55.668;37.508;2023-05-21T01:51:56;99938.81;;;11.58;100.00
36600;BME280;35385;55.668;37.508;2023-05-21T01:52:56;99923.75;;;11.46;100.00
36600;BME280;35385;55.668;37.508;2023-05-21T01:53:57;99891.22;;;11.30;100.00
36600;BME280;35385;55.668;37.508;2023-05-21T01:54:58;99942.44;;;11.57;100.00
36600;BME280;35385;55.668;37.508;2023-05-21T01:55:59;99901.44;;;11.36;100.00
36600;BME280;35385;55.668;37.508;2023-05-21T01:57:00;99939.03;;;11.66;100.00
36600;BME280;35385;55.668;37.508;2023-05-21T01:58:00;99873.16;;;11.22;100.00
36600;BME280;35385;55.668;37.508;2023-05-21T01:59:01;99934.19;;;11.60;100.00
36600;BME280;35385;55.668;37.508;2023-05-21T02:00:02;99932.44;;;11.70;100.00
36600;BME280;35385;55.668;37.508;2023-05-21T02:01:04;99938.75;;;11.69;100.00
36600;BME280;35385;55.668;37.508;2023-05-21T02:02:05;99947.50;;;11.72;100.00
36600;BME280;35385;55.668;37.508;2023-05-21T02:03:05;99937.47;;;11.64;100.00
36600;BME280;35385;55.668;37.508;2023-05-21T02:04:06;99937.69;;;11.61;100.00
36600;BME280;35385;55.668;37.508;2023-05-21T02:05:07;99944.03;;;11.60;100.00
36600;BME280;35385;55.668;37.508;2023-05-21T02:06:08;99936.25;;;11.57;100.00
36600;BME280;35385;55.668;37.508;2023-05-21T02:07:08;99938.19;;;11.55;100.00
36600;BME280;35385;55.668;37.508;2023-05-21T02:08:09;99941.03;;;11.53;100.00
36600;BME280;35385;55.668;37.508;2023-05-21T02:09:10;99932.84;;;11.55;100.00
36600;BME280;35385;55.668;37.508;2023-05-21T02:10:11;99940.31;;;11.51;100.00
36600;BME280;35385;55.668;37.508;2023-05-21T02:11:11;99917.47;;;11.36;100.00
36600;BME280;35385;55.668;37.508;2023-05-21T02:12:12;99815.16;;;10.69;100.00
36600;BME280;35385;55.668;37.508;2023-05-21T02:13:12;99922.34;;;11.31;100.00
36600;BME280;35385;55.668;37.508;2023-05-21T02:14:13;99932.31;;;11.29;100.00
36600;BME280;35385;55.668;37.508;2023-05-21T02:15:14;99930.38;;;11.31;100.00
36600;BME280;35385;55.668;37.508;2023-05-21T02:16:17;99923.84;;;11.24;100.00
36600;BME280;35385;55.668;37.508;2023-05-21T02:17:18;99853.88;;;10.85;100.00
36600;BME280;35385;55.668;37.508;2023-05-21T02:18:19;99928.31;;;11.23;100.00
36600;BME280;35385;55.668;37.508;2023-05-21T02:19:20;99926.88;;;11.19;100.00
36600;BME280;35385;55.668;37.508;2023-05-21T02:20:21;99923.47;;;11.17;100.00
36600;BME280;35385;55.668;37.508;2023-05-21T02:21:22;99931.56;;;11.27;100.00
36600;BME280;35385;55.668;37.508;2023-05-21T02:22:22;99909.72;;;11.22;100.00
36600;BME280;35385;55.668;37.508;2023-05-21T02:23:23;99931.81;;;11.35;100.00
36600;BME280;35385;55.668;37.508;2023-05-21T02:24:24;99929.38;;;11.32;100.00
36600;BME280;35385;55.668;37.508;2023-05-21T02:25:24;99883.25;;;11.08;100.00
36600;BME280;35385;55.668;37.508;2023-05-21T02:26:25;99861.88;;;10.96;100.00
36600;BME280;35385;55.668;37.508;2023-05-21T02:27:26;99920.88;;;11.38;100.00
36600;BME280;35385;55.668;37.508;2023-05-21T02:28:28;99923.16;;;11.43;100.00
36600;BME280;35385;55.668;37.508;2023-05-21T02:29:29;99928.19;;;11.36;100.00
36600;BME280;35385;55.668;37.508;2023-05-21T02:30:29;99935.56;;;11.44;100.00
36600;BME280;35385;55.668;37.508;2023-05-21T02:31:30;99827.16;;;10.85;100.00
36600;BME280;35385;55.668;37.508;2023-05-21T02:32:30;99938.34;;;11.53;100.00
36600;BME280;35385;55.668;37.508;2023-05-21T02:33:31;99920.59;;;11.41;100.00
36600;BME280;35385;55.668;37.508;2023-05-21T02:34:32;99928.34;;;11.55;100.00
36600;BME280;35385;55.668;37.508;2023-05-21T02:35:35;99880.56;;;11.19;100.00
36600;BME280;35385;55.668;37.508;2023-05-21T02:36:36;99931.94;;;11.33;100.00
36600;BME280;35385;55.668;37.508;2023-05-21T02:37:37;99864.81;;;10.82;100.00
36600;BME280;35385;55.668;37.508;2023-05-21T02:38:39;99936.72;;;11.19;100.00
36600;BME280;35385;55.668;37.508;2023-05-21T02:39:42;99922.84;;;11.14;100.00
36600;BME280;35385;55.668;37.508;2023-05-21T02:40:44;99926.63;;;11.00;100.00
36600;BME280;35385;55.668;37.508;2023-05-21T02:41:45;99934.06;;;11.08;100.00
36600;BME280;35385;55.668;37.508;2023-05-21T02:42:46;99911.22;;;10.92;100.00
36600;BME280;35385;55.668;37.508;2023-05-21T02:43:46;99935.75;;;11.09;100.00
36600;BME280;35385;55.668;37.508;2023-05-21T02:44:48;99858.41;;;10.62;100.00
36600;BME280;35385;55.668;37.508;2023-05-21T02:45:48;99882.09;;;10.78;100.00
36600;BME280;35385;55.668;37.508;2023-05-21T02:46:50;99943.75;;;11.20;100.00
36600;BME280;35385;55.668;37.508;2023-05-21T02:47:51;99930.78;;;11.04;100.00
36600;BME280;35385;55.668;37.508;2023-05-21T02:48:51;99882.09;;;10.78;100.00
36600;BME280;35385;55.668;37.508;2023-05-21T02:49:52;99944.97;;;11.16;100.00
36600;BME280;35385;55.668;37.508;2023-05-21T02:50:53;99938.44;;;11.09;100.00
36600;BME280;35385;55.668;37.508;2023-05-21T02:51:53;99929.69;;;11.07;100.00
36600;BME280;35385;55.668;37.508;2023-05-21T02:52:54;99929.44;;;11.10;100.00
36600;BME280;35385;55.668;37.508;2023-05-21T02:53:55;99939.88;;;11.13;100.00
36600;BME280;35385;55.668;37.508;2023-05-21T02:54:55;99941.31;;;11.17;100.00
36600;BME280;35385;55.668;37.508;2023-05-21T02:55:56;99944.72;;;11.19;100.00
36600;BME280;35385;55.668;37.508;2023-05-21T02:56:56;99935.75;;;11.20;100.00
36600;BME280;35385;55.668;37.508;2023-05-21T02:57:57;99943.75;;;11.20;100.00
36600;BME280;35385;55.668;37.508;2023-05-21T02:58:58;99930.53;;;11.07;100.00
36600;BME280;35385;55.668;37.508;2023-05-21T02:59:58;99947.66;;;11.16;100.00
36600;BME280;35385;55.668;37.508;2023-05-21T03:00:59;99932.97;;;11.10;100.00
36600;BME280;35385;55.668;37.508;2023-05-21T03:01:59;99928.09;;;11.04;100.00
36600;BME280;35385;55.668;37.508;2023-05-21T03:03:00;99938.66;;;11.17;100.00
36600;BME280;35385;55.668;37.508;2023-05-21T03:04:01;99942.06;;;11.19;100.00
36600;BME280;35385;55.668;37.508;2023-05-21T03:05:01;99938.66;;;11.17;100.00
36600;BME280;35385;55.668;37.508;2023-05-21T03:06:02;99924.78;;;11.12;100.00
36600;BME280;35385;55.668;37.508;2023-05-21T03:07:06;99943.13;;;11.27;100.00
36600;BME280;35385;55.668;37.508;2023-05-21T03:08:09;99900.03;;;11.10;100.00
36600;BME280;35385;55.668;37.508;2023-05-21T03:09:09;99934.75;;;11.32;100.00
36600;BME280;35385;55.668;37.508;2023-05-21T03:10:10;99933.69;;;11.23;100.00
36600;BME280;35385;55.668;37.508;2023-05-21T03:11:11;99868.84;;;10.88;100.00
36600;BME280;35385;55.668;37.508;2023-05-21T03:12:11;99888.97;;;11.03;100.00
36600;BME280;35385;55.668;37.508;2023-05-21T03:13:12;99938.38;;;11.31;100.00
36600;BME280;35385;55.668;37.508;2023-05-21T03:14:13;99875.63;;;10.92;100.00
36600;BME280;35385;55.668;37.508;2023-05-21T03:15:14;99920.44;;;11.22;100.00
36600;BME280;35385;55.668;37.508;2023-05-21T03:16:15;99856.69;;;10.95;100.00
36600;BME280;35385;55.668;37.508;2023-05-21T03:17:16;99877.41;;;11.14;100.00
36600;BME280;35385;55.668;37.508;2023-05-21T03:18:18;99880.06;;;11.14;100.00
36600;BME280;35385;55.668;37.508;2023-05-21T03:19:26;99906.91;;;11.34;100.00
36600;BME280;35385;55.668;37.508;2023-05-21T03:20:44;99930.91;;;11.57;100.00
36600;BME280;35385;55.668;37.508;2023-05-21T03:21:44;99937.19;;;11.78;100.00
36600;BME280;35385;55.668;37.508;2023-05-21T03:22:46;99944.13;;;11.81;100.00
36600;BME280;35385;55.668;37.508;2023-05-21T03:23:48;99887.91;;;11.49;100.00
36600;BME280;35385;55.668;37.508;2023-05-21T03:24:48;99924.13;;;11.85;100.00
36600;BME280;35385;55.668;37.508;2023-05-21T03:25:49;99941.53;;;11.90;100.00
36600;BME280;35385;55.668;37.508;2023-05-21T03:26:55;99940.16;;;11.96;100.00
36600;BME280;35385;55.668;37.508;2023-05-21T03:27:57;99945.31;;;11.88;100.00
36600;BME280;35385;55.668;37.508;2023-05-21T03:28:57;99936.53;;;11.86;100.00
36600;BME280;35385;55.668;37.508;2023-05-21T03:29:58;99937.41;;;11.86;100.00
36600;BME280;35385;55.668;37.508;2023-05-21T03:30:59;99897.44;;;11.62;100.00
36600;BME280;35385;55.668;37.508;2023-05-21T03:32:00;99940.09;;;11.75;100.00
36600;BME280;35385;55.668;37.508;2023-05-21T03:33:01;99909.63;;;11.55;100.00
36600;BME280;35385;55.668;37.508;2023-05-21T03:34:02;99934.13;;;11.72;100.00
36600;BME280;35385;55.668;37.508;2023-05-21T03:35:03;99947.91;;;11.67;100.00
36600;BME280;35385;55.668;37.508;2023-05-21T03:36:05;99942.69;;;11.65;100.00
36600;BME280;35385;55.668;37.508;2023-05-21T03:37:06;99948.88;;;11.66;100.00
36600;BME280;35385;55.668;37.508;2023-05-21T03:38:06;99938.91;;;11.68;100.00
36600;BME280;35385;55.668;37.508;2023-05-21T03:39:07;99938.91;;;11.68;100.00
36600;BME280;35385;55.668;37.508;2023-05-21T03:40:08;99944.38;;;11.66;100.00
36600;BME280;35385;55.668;37.508;2023-05-21T03:41:09;99939.75;;;11.68;100.00
36600;BME280;35385;55.668;37.508;2023-05-21T03:42:10;99937.47;;;11.64;100.00
36600;BME280;35385;55.668;37.508;2023-05-21T03:43:13;99940.25;;;11.62;100.00
36600;BME280;35385;55.668;37.508;2023-05-21T03:44:13;99935.56;;;11.44;100.00
36600;BME280;35385;55.668;37.508;2023-05-21T03:45:14;99945.41;;;11.43;100.00
36600;BME280;35385;55.668;37.508;2023-05-21T03:46:14;99936.03;;;11.49;100.00
36600;BME280;35385;55.668;37.508;2023-05-21T03:47:15;99948.03;;;11.54;100.00
36600;BME280;35385;55.668;37.508;2023-05-21T03:48:16;99903.13;;;11.26;100.00
36600;BME280;35385;55.668;37.508;2023-05-21T03:49:19;99949.06;;;11.42;100.00
36600;BME280;35385;55.668;37.508;2023-05-21T03:50:19;99939.09;;;11.44;100.00
36600;BME280;35385;55.668;37.508;2023-05-21T03:51:20;99898.44;;;11.18;100.00
36600;BME280;35385;55.668;37.508;2023-05-21T03:52:20;99925.00;;;11.31;100.00
36600;BME280;35385;55.668;37.508;2023-05-21T03:53:21;99923.31;;;11.30;100.00
36600;BME280;35385;55.668;37.508;2023-05-21T03:54:22;99914.22;;;11.21;100.00
36600;BME280;35385;55.668;37.508;2023-05-21T03:55:22;99916.75;;;11.34;100.00
36600;BME280;35385;55.668;37.508;2023-05-21T03:56:23;99900.09;;;11.30;100.00
36600;BME280;35385;55.668;37.508;2023-05-21T03:57:24;99899.75;;;11.24;100.00
36600;BME280;35385;55.668;37.508;2023-05-21T03:58:24;99941.72;;;11.55;100.00
36600;BME280;35385;55.668;37.508;2023-05-21T03:59:26;99929.84;;;11.48;100.00
36600;BME280;35385;55.668;37.508;2023-05-21T04:00:26;99931.19;;;11.54;100.00
36600;BME280;35385;55.668;37.508;2023-05-21T04:01:27;99940.13;;;11.64;100.00
36600;BME280;35385;55.668;37.508;2023-05-21T04:02:27;99939.91;;;11.56;100.00
36600;BME280;35385;55.668;37.508;2023-05-21T04:03:30;99936.97;;;11.59;100.00
36600;BME280;35385;55.668;37.508;2023-05-21T04:04:42;99937.81;;;11.59;100.00
36600;BME280;35385;55.668;37.508;2023-05-21T04:05:43;99897.06;;;11.35;100.00
36600;BME280;35385;55.668;37.508;2023-05-21T04:06:44;99935.41;;;11.56;100.00
36600;BME280;35385;55.668;37.508;2023-05-21T04:07:44;99941.50;;;11.47;100.00
36600;BME280;35385;55.668;37.508;2023-05-21T04:08:49;99935.69;;;11.42;100.00
36600;BME280;35385;55.668;37.508;2023-05-21T04:09:50;99934.47;;;11.46;100.00
36600;BME280;35385;55.668;37.508;2023-05-21T04:10:50;99930.09;;;11.45;100.00
36600;BME280;35385;55.668;37.508;2023-05-21T04:11:51;99944.41;;;11.55;100.00
36600;BME280;35385;55.668;37.508;2023-05-21T04:12:51;99918.91;;;11.40;100.00
36600;BME280;35385;55.668;37.508;2023-05-21T04:13:52;99947.06;;;11.55;100.00
36600;BME280;35385;55.668;37.508;2023-05-21T04:14:52;99937.88;;;11.48;100.00
36600;BME280;35385;55.668;37.508;2023-05-21T04:15:53;99942.72;;;11.43;100.00
36600;BME280;35385;55.668;37.508;2023-05-21T04:16:54;99944.31;;;11.46;100.00
36600;BME280;35385;55.668;37.508;2023-05-21T04:17:54;99897.69;;;11.16;100.00
36600;BME280;35385;55.668;37.508;2023-05-21T04:18:56;99935.84;;;11.29;100.00
36600;BME280;35385;55.668;37.508;2023-05-21T04:19:56;99889.34;;;11.10;100.00
36600;BME280;35385;55.668;37.508;2023-05-21T04:20:57;99942.97;;;11.40;100.00
36600;BME280;35385;55.668;37.508;2023-05-21T04:21:59;99935.69;;;11.42;100.00
36600;BME280;35385;55.668;37.508;2023-05-21T04:23:00;99941.50;;;11.47;100.00
36600;BME280;35385;55.668;37.508;2023-05-21T04:24:02;99949.28;;;11.50;100.00
36600;BME280;35385;55.668;37.508;2023-05-21T04:25:03;99942.97;;;11.51;100.00
36600;BME280;35385;55.668;37.508;2023-05-21T04:26:05;99930.31;;;11.53;100.00
36600;BME280;35385;55.668;37.508;2023-05-21T04:27:06;99941.34;;;11.60;100.00
36600;BME280;35385;55.668;37.508;2023-05-21T04:28:09;99944.50;;;11.65;100.00
36600;BME280;35385;55.668;37.508;2023-05-21T04:29:10;99932.53;;;11.48;100.00
36600;BME280;35385;55.668;37.508;2023-05-21T04:30:10;99858.97;;;11.11;100.00
36600;BME280;35385;55.668;37.508;2023-05-21T04:31:11;99889.75;;;11.26;100.00
36600;BME280;35385;55.668;37.508;2023-05-21T04:32:12;99912.56;;;11.41;100.00
36600;BME280;35385;55.668;37.508;2023-05-21T04:33:14;99938.81;;;11.58;100.00
36600;BME280;35385;55.668;37.508;2023-05-21T04:34:17;99925.22;;;11.50;100.00
36600;BME280;35385;55.668;37.508;2023-05-21T04:35:18;99940.50;;;11.59;100.00
36600;BME280;35385;55.668;37.508;2023-05-21T04:36:18;99939.16;;;11.65;100.00
36600;BME280;35385;55.668;37.508;2023-05-21T04:37:19;99934.53;;;11.56;100.00
36600;BME280;35385;55.668;37.508;2023-05-21T04:38:19;99931.28;;;11.52;100.00
36600;BME280;35385;55.668;37.508;2023-05-21T04:39:20;99935.69;;;11.53;100.00
36600;BME280;35385;55.668;37.508;2023-05-21T04:40:21;99935.41;;;11.56;100.00
36600;BME280;35385;55.668;37.508;2023-05-21T04:41:23;99898.03;;;11.34;100.00
36600;BME280;35385;55.668;37.508;2023-05-21T04:42:24;99932.72;;;11.56;100.00
36600;BME280;35385;55.668;37.508;2023-05-21T04:43:25;99938.06;;;11.67;100.00
36600;BME280;35385;55.668;37.508;2023-05-21T04:44:26;99942.44;;;11.80;100.00
36600;BME280;35385;55.668;37.508;2023-05-21T04:45:26;99936.22;;;11.79;100.00
36600;BME280;35385;55.668;37.508;2023-05-21T04:46:28;99938.50;;;11.84;100.00
36600;BME280;35385;55.668;37.508;2023-05-21T04:47:30;99940.50;;;12.02;100.00
36600;BME280;35385;55.668;37.508;2023-05-21T04:48:34;99944.69;;;12.16;100.00
36600;BME280;35385;55.668;37.508;2023-05-21T04:49:35;99923.97;;;12.18;100.00
36600;BME280;35385;55.668;37.508;2023-05-21T04:50:35;99923.34;;;12.26;100.00
36600;BME280;35385;55.668;37.508;2023-05-21T04:51:36;99933.91;;;12.27;100.00
36600;BME280;35385;55.668;37.508;2023-05-21T04:52:41;99926.16;;;12.24;100.00
36600;BME280;35385;55.668;37.508;2023-05-21T04:53:41;99924.44;;;12.23;100.00
36600;BME280;35385;55.668;37.508;2023-05-21T04:54:42;99930.00;;;12.11;100.00
36600;BME280;35385;55.668;37.508;2023-05-21T04:55:45;99936.22;;;12.00;100.00
36600;BME280;35385;55.668;37.508;2023-05-21T04:56:46;99928.06;;;11.81;100.00
36600;BME280;35385;55.668;37.508;2023-05-21T04:57:46;99940.88;;;11.98;100.00
36600;BME280;35385;55.668;37.508;2023-05-21T04:58:47;99943.69;;;11.96;100.00
36600;BME280;35385;55.668;37.508;2023-05-21T04:59:48;99928.19;;;12.00;100.00
36600;BME280;35385;55.668;37.508;2023-05-21T05:00:50;99939.50;;;12.03;100.00
36600;BME280;35385;55.668;37.508;2023-05-21T05:01:52;99927.94;;;12.03;100.00
36600;BME280;35385;55.668;37.508;2023-05-21T05:02:53;99932.69;;;12.11;100.00
36600;BME280;35385;55.668;37.508;2023-05-21T05:03:54;99914.56;;;12.03;100.00
36600;BME280;35385;55.668;37.508;2023-05-21T05:04:55;99936.91;;;12.13;100.00
36600;BME280;35385;55.668;37.508;2023-05-21T05:05:56;99899.78;;;11.88;100.00
36600;BME280;35385;55.668;37.508;2023-05-21T05:06:57;99917.00;;;12.06;100.00
36600;BME280;35385;55.668;37.508;2023-05-21T05:07:57;99936.38;;;12.19;100.00
36600;BME280;35385;55.668;37.508;2023-05-21T05:08:58;99922.88;;;12.21;100.00
36600;BME280;35385;55.668;37.508;2023-05-21T05:09:58;99930.53;;;12.25;100.00
36600;BME280;35385;55.668;37.508;2023-05-21T05:10:59;99941.03;;;12.17;100.00
36600;BME280;35385;55.668;37.508;2023-05-21T05:11:59;99919.66;;;12.06;100.00
36600;BME280;35385;55.668;37.508;2023-05-21T05:13:00;99944.91;;;12.24;100.00
36600;BME280;35385;55.668;37.508;2023-05-21T05:14:01;99941.28;;;12.14;100.00
36600;BME280;35385;55.668;37.508;2023-05-21T05:15:02;99935.13;;;12.02;100.00
36600;BME280;35385;55.668;37.508;2023-05-21T05:16:02;99939.03;;;11.98;100.00
36600;BME280;35385;55.668;37.508;2023-05-21T05:17:03;99938.72;;;11.92;100.00
36600;BME280;35385;55.668;37.508;2023-05-21T05:18:06;99941.91;;;11.86;100.00